Time;durP1;ratioP1;P1;durP2;ratioP2;P2;SDS_P1;SDS_P2;PMS_P1;PMS_P2;Temp;Humidity;BMP_temperature;BMP_pressure;BME280_temperature;BME280_humidity;BME280_pressure;Samples;Min_cycle;Max_cycle;Signal;HPM_P1;HPM_P2
2023/04/20 00:01:37;;;;;;;0.20;0.20;;;;;;;19.82;38.39;101675.25;5077386;28;20055;-46
2023/04/20 00:04:03;;;;;;;0.30;0.30;;;;;;;19.80;38.48;101668.06;5112580;28;20055;-47
2023/04/20 00:06:31;;;;;;;0.20;0.20;;;;;;;19.81;38.14;101671.66;5094753;28;20061;-47
2023/04/20 00:08:56;;;;;;;0.20;0.20;;;;;;;19.80;38.41;101670.84;5091645;28;20480;-45
2023/04/20 00:11:22;;;;;;;0.25;0.25;;;;;;;19.80;38.40;101673.59;5097686;27;20054;-46
2023/04/20 00:13:48;;;;;;;0.20;0.20;;;;;;;19.79;38.47;101660.88;5114587;28;20096;-46
2023/04/20 00:16:13;;;;;;;0.20;0.20;;;;;;;19.81;38.62;101668.91;5100744;28;20044;-45
2023/04/20 00:18:39;;;;;;;0.20;0.20;;;;;;;19.80;38.32;101654.25;5095383;28;20044;-46
2023/04/20 00:21:05;;;;;;;0.20;0.20;;;;;;;19.79;38.26;101651.78;5113952;28;20047;-46
2023/04/20 00:23:30;;;;;;;0.20;0.20;;;;;;;19.79;38.86;101652.59;5115687;28;20130;-45
2023/04/20 00:25:56;;;;;;;0.20;0.20;;;;;;;19.79;38.38;101649.00;5116131;28;20047;-46
2023/04/20 00:28:22;;;;;;;0.20;0.20;;;;;;;19.79;38.26;101646.25;5115926;28;20092;-45
2023/04/20 00:30:47;;;;;;;0.20;0.20;;;;;;;19.79;38.20;101637.94;5115635;28;20051;-46
2023/04/20 00:33:13;;;;;;;0.20;0.20;;;;;;;19.80;38.41;101636.84;5096691;28;20051;-46
2023/04/20 00:35:39;;;;;;;0.25;0.25;;;;;;;19.80;38.30;101628.56;5115668;28;20091;-46
2023/04/20 00:38:05;;;;;;;0.28;0.28;;;;;;;19.79;38.22;101624.97;5115658;27;20245;-45
2023/04/20 00:40:30;;;;;;;0.20;0.20;;;;;;;19.80;38.46;101620.25;5115137;28;20047;-48
2023/04/20 00:42:56;;;;;;;0.20;0.20;;;;;;;19.79;38.28;101611.13;5114782;28;20062;-45
2023/04/20 00:45:22;;;;;;;0.20;0.20;;;;;;;19.79;38.11;101608.38;5114146;28;20051;-46
2023/04/20 00:47:48;;;;;;;0.20;0.20;;;;;;;19.78;38.51;101605.88;5115217;27;20047;-49
2023/04/20 00:50:14;;;;;;;0.20;0.20;;;;;;;19.77;38.77;101596.78;5115540;27;20043;-46
2023/04/20 00:52:40;;;;;;;0.20;0.20;;;;;;;19.77;38.84;101599.53;5096865;28;20043;-48
2023/04/20 00:55:06;;;;;;;0.20;0.20;;;;;;;19.77;38.19;101595.91;5091611;28;20046;-46
2023/04/20 00:57:32;;;;;;;0.20;0.20;;;;;;;19.78;38.36;101592.06;5094345;28;20052;-45
2023/04/20 00:59:57;;;;;;;0.20;0.20;;;;;;;19.77;38.39;101590.38;5084221;28;20351;-45
2023/04/20 01:02:23;;;;;;;0.20;0.20;;;;;;;19.75;38.79;101576.84;5115051;28;20098;-47
2023/04/20 01:04:49;;;;;;;0.20;0.20;;;;;;;19.78;38.13;101583.78;5115466;28;20107;-50
2023/04/20 01:07:15;;;;;;;0.20;0.20;;;;;;;19.78;38.22;101579.09;5115377;28;20050;-45
2023/04/20 01:09:41;;;;;;;0.20;0.20;;;;;;;19.77;38.37;101573.81;5114600;28;20660;-49
2023/04/20 01:12:08;;;;;;;0.20;0.20;;;;;;;19.77;38.31;101579.34;5114790;27;20054;-46
2023/04/20 01:14:34;;;;;;;0.20;0.20;;;;;;;19.77;38.25;101571.03;5080796;28;20043;-47
2023/04/20 01:16:59;;;;;;;0.30;0.30;;;;;;;19.78;38.37;101572.72;5114908;28;20352;-47
2023/04/20 01:19:25;;;;;;;0.20;0.20;;;;;;;19.76;38.89;101561.91;5104496;27;20051;-46
2023/04/20 01:21:51;;;;;;;0.20;0.20;;;;;;;19.76;39.11;101561.09;5113134;27;20495;-46
2023/04/20 01:24:17;;;;;;;0.20;0.20;;;;;;;19.74;38.83;101553.09;5096533;28;20050;-46
2023/04/20 01:26:42;;;;;;;0.20;0.20;;;;;;;19.75;38.64;101549.22;5115164;28;20043;-45
2023/04/20 01:29:08;;;;;;;0.20;0.20;;;;;;;19.77;39.05;101551.69;5114934;28;20463;-45
2023/04/20 01:31:34;;;;;;;0.20;0.20;;;;;;;19.74;39.36;101542.03;5096222;28;20331;-48
2023/04/20 01:34:00;;;;;;;0.20;0.20;;;;;;;19.75;38.46;101538.16;5114088;28;20582;-46
2023/04/20 01:36:25;;;;;;;0.20;0.20;;;;;;;19.76;38.68;101538.97;5114712;28;20047;-46
2023/04/20 01:38:51;;;;;;;0.20;0.20;;;;;;;19.74;39.08;101536.50;5114745;28;20042;-46
2023/04/20 01:41:17;;;;;;;0.20;0.20;;;;;;;19.75;38.39;101531.81;5095700;28;20543;-45
2023/04/20 01:43:42;;;;;;;0.20;0.20;;;;;;;19.75;38.32;101529.88;5114235;28;20043;-47
2023/04/20 01:46:08;;;;;;;0.20;0.20;;;;;;;19.75;38.61;101534.56;5098624;28;20082;-46
2023/04/20 01:48:34;;;;;;;0.20;0.20;;;;;;;19.74;38.47;101530.16;5109162;28;20734;-47
2023/04/20 01:51:00;;;;;;;0.20;0.20;;;;;;;19.75;38.15;101532.63;5114194;28;20657;-47
2023/04/20 01:53:26;;;;;;;0.20;0.20;;;;;;;19.74;39.11;101521.84;5114306;28;20043;-46
2023/04/20 01:55:51;;;;;;;0.20;0.20;;;;;;;19.75;39.04;101531.81;5114477;28;20399;-49
2023/04/20 01:58:17;;;;;;;0.20;0.20;;;;;;;19.74;38.83;101528.22;5113968;28;20639;-46
2023/04/20 02:00:43;;;;;;;0.20;0.20;;;;;;;19.74;39.37;101533.72;5114179;28;20047;-45
2023/04/20 02:03:09;;;;;;;0.20;0.20;;;;;;;19.73;38.82;101526.56;5078763;28;20051;-46
2023/04/20 02:05:34;;;;;;;0.22;0.22;;;;;;;19.75;38.45;101523.50;5104523;28;20043;-45
2023/04/20 02:08:00;;;;;;;0.20;0.20;;;;;;;19.75;38.68;101524.34;5094127;28;20047;-48
2023/04/20 02:10:26;;;;;;;0.20;0.20;;;;;;;19.75;38.28;101513.28;5084301;28;20115;-48
2023/04/20 02:12:51;;;;;;;0.20;0.20;;;;;;;19.73;38.75;101512.75;5133132;27;20269;-45
2023/04/20 02:15:17;;;;;;;0.20;0.20;;;;;;;19.74;38.86;101506.09;5120606;27;20052;-46
2023/04/20 02:17:44;;;;;;;0.30;0.30;;;;;;;19.74;39.13;101502.50;5110771;28;20568;-46
2023/04/20 02:20:10;;;;;;;0.20;0.20;;;;;;;19.74;38.70;101500.56;5114187;28;20047;-45
2023/04/20 02:22:36;;;;;;;0.20;0.20;;;;;;;19.75;39.05;101501.41;5099262;28;20121;-45
2023/04/20 02:25:03;;;;;;;0.20;0.20;;;;;;;19.74;38.70;101513.56;5080399;28;20510;-46
2023/04/20 02:27:30;;;;;;;0.30;0.30;;;;;;;19.74;38.69;101505.28;5114481;28;20070;-45
2023/04/20 02:29:56;;;;;;;0.20;0.20;;;;;;;19.74;38.49;101497.81;5095899;28;20521;-47
2023/04/20 02:32:21;;;;;;;0.20;0.20;;;;;;;19.74;38.54;101483.16;5113773;27;20043;-48
2023/04/20 02:34:47;;;;;;;0.20;0.20;;;;;;;19.74;38.70;101475.69;5113044;28;20055;-49
2023/04/20 02:37:13;;;;;;;0.20;0.20;;;;;;;19.75;38.75;101487.59;5113858;28;20045;-50
2023/04/20 02:39:39;;;;;;;0.20;0.20;;;;;;;19.74;38.65;101484.00;5112283;28;20397;-44
2023/04/20 02:42:05;;;;;;;0.20;0.20;;;;;;;19.75;38.94;101484.81;5114012;28;20046;-46
2023/04/20 02:44:30;;;;;;;0.20;0.20;;;;;;;19.73;38.70;101478.72;5080763;28;20074;-46
2023/04/20 02:46:56;;;;;;;0.20;0.20;;;;;;;19.74;38.10;101472.94;5101165;28;20469;-45
2023/04/20 02:49:22;;;;;;;0.20;0.20;;;;;;;19.73;39.00;101476.81;5098215;28;20048;-47
2023/04/20 02:51:48;;;;;;;0.20;0.20;;;;;;;19.74;38.57;101469.34;5112476;28;20089;-46
2023/04/20 02:54:13;;;;;;;0.20;0.20;;;;;;;19.74;38.49;101466.59;5113806;27;20214;-47
2023/04/20 02:56:39;;;;;;;0.20;0.20;;;;;;;19.72;38.56;101466.84;5094983;27;21031;-45
2023/04/20 02:59:05;;;;;;;0.20;0.20;;;;;;;19.74;38.44;101472.94;5092598;28;20673;-47
2023/04/20 03:01:31;;;;;;;0.28;0.28;;;;;;;19.73;38.25;101464.91;5091519;28;20213;-48
2023/04/20 03:03:56;;;;;;;0.20;0.20;;;;;;;19.73;38.20;101449.19;5113458;28;20047;-45
2023/04/20 03:06:22;;;;;;;0.20;0.20;;;;;;;19.73;38.53;101449.19;5113634;28;20043;-45
2023/04/20 03:08:48;;;;;;;0.22;0.22;;;;;;;19.74;38.80;101445.31;5094915;28;20062;-46
2023/04/20 03:11:14;;;;;;;0.20;0.20;;;;;;;19.73;38.23;101442.78;5104050;28;20545;-46
2023/04/20 03:13:40;;;;;;;0.20;0.20;;;;;;;19.73;38.90;101440.88;5094867;28;20081;-46
2023/04/20 03:16:06;;;;;;;0.20;0.20;;;;;;;19.74;38.32;101448.06;5113084;28;20096;-47
2023/04/20 03:18:32;;;;;;;0.20;0.20;;;;;;;19.73;38.48;101440.03;5095034;28;20338;-46
2023/04/20 03:20:57;;;;;;;0.20;0.20;;;;;;;19.75;38.28;101443.38;5098902;28;20267;-45
2023/04/20 03:23:23;;;;;;;0.20;0.20;;;;;;;19.72;38.42;101439.19;5091836;28;20051;-47
2023/04/20 03:25:49;;;;;;;0.30;0.30;;;;;;;19.73;38.39;101445.56;5104473;28;20524;-45
2023/04/20 03:28:15;;;;;;;0.20;0.20;;;;;;;19.73;38.53;101448.31;5094452;28;20441;-47
2023/04/20 03:30:41;;;;;;;0.20;0.20;;;;;;;19.71;38.86;101443.06;5112954;28;20442;-46
2023/04/20 03:33:06;;;;;;;0.20;0.20;;;;;;;19.71;38.69;101445.00;5091328;28;20142;-47
2023/04/20 03:35:32;;;;;;;0.20;0.20;;;;;;;19.71;38.83;101433.97;5101599;28;20837;-47
2023/04/20 03:37:57;;;;;;;0.20;0.20;;;;;;;19.72;38.67;101444.72;5112794;28;20051;-47
2023/04/20 03:40:23;;;;;;;0.20;0.20;;;;;;;19.72;39.05;101441.13;5108792;28;20043;-46
2023/04/20 03:42:49;;;;;;;0.20;0.20;;;;;;;19.71;38.43;101426.50;5109327;28;20291;-47
2023/04/20 03:45:16;;;;;;;0.20;0.20;;;;;;;19.71;39.02;101428.44;5092986;28;20052;-47
2023/04/20 03:47:42;;;;;;;0.20;0.20;;;;;;;19.72;38.41;101419.03;5102002;28;20043;-46
2023/04/20 03:50:08;;;;;;;0.20;0.20;;;;;;;19.72;38.26;101424.56;5116672;28;20051;-46
2023/04/20 03:52:34;;;;;;;0.20;0.20;;;;;;;19.71;38.35;101423.72;5097772;28;20051;-45
2023/04/20 03:54:59;;;;;;;0.30;0.30;;;;;;;19.71;38.84;101426.50;5116484;28;20047;-46
2023/04/20 03:57:25;;;;;;;0.20;0.20;;;;;;;19.70;38.64;101416.56;5113238;27;20060;-46
2023/04/20 03:59:51;;;;;;;0.20;0.20;;;;;;;19.72;38.97;101416.25;5096862;28;20052;-46
2023/04/20 04:02:17;;;;;;;0.20;0.20;;;;;;;19.72;38.43;101413.50;5116762;28;20789;-45
2023/04/20 04:04:44;;;;;;;0.20;0.20;;;;;;;19.71;38.81;101409.09;5115822;28;20710;-45
2023/04/20 04:07:10;;;;;;;0.20;0.20;;;;;;;19.71;38.65;101406.31;5116501;28;20438;-45
2023/04/20 04:09:35;;;;;;;0.30;0.30;;;;;;;19.70;38.43;101411.03;5097388;28;20531;-48
2023/04/20 04:12:03;;;;;;;0.20;0.20;;;;;;;19.71;38.69;101404.38;5078910;28;20367;-45
2023/04/20 04:14:29;;;;;;;0.20;0.20;;;;;;;19.70;38.48;101408.25;5096038;28;20594;-46
2023/04/20 04:16:55;;;;;;;0.20;0.20;;;;;;;19.70;38.68;101402.72;5116422;28;20596;-46
2023/04/20 04:19:20;;;;;;;0.20;0.20;;;;;;;19.71;38.90;101406.31;5103201;28;20059;-45
2023/04/20 04:21:46;;;;;;;0.20;0.20;;;;;;;19.71;38.61;101398.03;5114547;28;20043;-46
2023/04/20 04:24:12;;;;;;;0.20;0.20;;;;;;;19.70;38.66;101399.97;5115348;28;20278;-45
2023/04/20 04:26:37;;;;;;;0.20;0.20;;;;;;;19.70;38.59;101399.97;5115461;28;20377;-46
2023/04/20 04:29:03;;;;;;;0.20;0.20;;;;;;;19.69;38.38;101392.78;5116370;28;20265;-46
2023/04/20 04:31:31;;;;;;;0.20;0.20;;;;;;;19.70;38.77;101388.09;5115513;27;20325;-45
2023/04/20 04:33:57;;;;;;;;;;;;;;;19.71;38.68;101387.81;5109842;28;20387;-47
2023/04/20 04:36:25;;;;;;;0.20;0.20;;;;;;;19.70;38.43;101391.69;5115378;28;19923;-47
2023/04/20 04:38:51;;;;;;;;;;;;;;;19.70;38.47;101394.44;5116143;28;20601;-46
2023/04/20 04:41:17;;;;;;;0.20;0.20;;;;;;;19.69;38.47;101387.25;5115467;28;19925;-48
2023/04/20 04:43:43;;;;;;;0.20;0.20;;;;;;;19.69;38.45;101384.50;5115200;28;20043;-47
2023/04/20 04:46:10;;;;;;;0.20;0.20;;;;;;;19.70;38.24;101390.84;5115200;28;20067;-45
2023/04/20 04:48:36;;;;;;;0.20;0.20;;;;;;;19.69;38.62;101387.25;5096565;28;20055;-47
2023/04/20 04:51:03;;;;;;;0.20;0.20;;;;;;;19.70;38.30;101386.16;5097130;28;20047;-48
2023/04/20 04:53:28;;;;;;;0.20;0.20;;;;;;;19.69;39.46;101380.88;5099330;28;20090;-48
2023/04/20 04:55:54;;;;;;;0.20;0.20;;;;;;;19.70;38.77;101380.63;5091896;28;20071;-47
2023/04/20 04:58:20;;;;;;;0.20;0.20;;;;;;;19.70;38.64;101385.31;5100586;28;20138;-47
2023/04/20 05:00:45;;;;;;;0.20;0.20;;;;;;;19.69;38.41;101381.75;5101042;28;20047;-48
2023/04/20 05:03:11;;;;;;;0.20;0.20;;;;;;;19.69;38.57;101381.75;5114933;28;20438;-45
2023/04/20 05:05:37;;;;;;;0.20;0.20;;;;;;;19.69;38.21;101384.50;5115123;28;20099;-48
2023/04/20 05:08:03;;;;;;;0.40;0.40;;;;;;;19.69;38.53;101383.63;5111897;28;20046;-46
2023/04/20 05:10:28;;;;;;;0.20;0.20;;;;;;;19.68;38.85;101382.81;5105123;28;20138;-47
2023/04/20 05:12:54;;;;;;;0.20;0.20;;;;;;;19.69;38.67;101387.25;5114373;28;20731;-47
2023/04/20 05:15:20;;;;;;;0.20;0.20;;;;;;;19.70;38.43;101382.56;5108761;28;20552;-49
2023/04/20 05:17:48;;;;;;;0.20;0.20;;;;;;;19.69;38.81;101380.88;5112567;27;20035;-45
2023/04/20 05:20:14;;;;;;;0.20;0.20;;;;;;;19.66;39.32;101386.97;5108757;28;20043;-47
2023/04/20 05:22:40;;;;;;;0.20;0.20;;;;;;;19.66;39.44;101382.28;5079074;28;20115;-45
2023/04/20 05:25:06;;;;;;;0.20;0.20;;;;;;;19.66;39.92;101390.56;5105700;28;20043;-46
2023/04/20 05:27:32;;;;;;;0.20;0.20;;;;;;;19.64;39.94;101384.47;5111193;28;20043;-46
2023/04/20 05:29:58;;;;;;;0.20;0.20;;;;;;;19.65;39.87;101388.09;5115167;28;20080;-50
2023/04/20 05:32:42;;;;;;;0.22;0.22;;;;;;;19.66;39.44;101392.50;5097111;28;20256;-48
2023/04/20 05:35:08;;;;;;;0.20;0.20;;;;;;;19.65;38.92;101397.19;5113810;28;20047;-46
2023/04/20 05:37:33;;;;;;;0.20;0.20;;;;;;;19.64;39.94;101395.50;5109385;28;20852;-46
2023/04/20 05:39:59;;;;;;;0.20;0.20;;;;;;;19.67;39.54;101394.16;5112623;28;20453;-44
2023/04/20 05:42:25;;;;;;;0.30;0.30;;;;;;;19.65;39.75;101394.44;5110993;28;20071;-46
2023/04/20 05:44:50;;;;;;;0.20;0.20;;;;;;;19.65;39.94;101396.38;5112030;28;20079;-48
2023/04/20 05:47:16;;;;;;;0.20;0.20;;;;;;;19.65;39.86;101388.09;5110566;27;20506;-47
2023/04/20 05:49:44;;;;;;;0.20;0.20;;;;;;;19.64;39.95;101395.50;5111103;27;20202;-47
2023/04/20 05:52:09;;;;;;;0.20;0.20;;;;;;;19.64;39.96;101391.94;5095351;28;20047;-49
2023/04/20 05:54:35;;;;;;;0.20;0.20;;;;;;;19.64;39.87;101384.47;5099256;28;20293;-47
2023/04/20 05:57:01;;;;;;;0.20;0.20;;;;;;;19.65;39.80;101385.31;5108806;28;20042;-46
2023/04/20 05:59:27;;;;;;;0.20;0.20;;;;;;;19.65;39.44;101388.91;5106580;28;20529;-44
2023/04/20 06:01:53;;;;;;;0.20;0.20;;;;;;;19.64;40.05;101389.16;5102875;28;20574;-45
2023/04/20 06:04:18;;;;;;;0.20;0.20;;;;;;;19.63;39.65;101377.28;5103136;28;20427;-45
2023/04/20 06:06:44;;;;;;;0.30;0.30;;;;;;;19.64;39.63;101380.88;5100738;28;20049;-47
2023/04/20 06:09:10;;;;;;;0.20;0.20;;;;;;;19.58;38.40;101380.00;5096573;28;20039;-44
2023/04/20 06:11:36;;;;;;;0.20;0.20;;;;;;;19.61;38.75;101378.69;5099924;28;20404;-47
2023/04/20 06:14:02;;;;;;;0.20;0.20;;;;;;;19.64;39.55;101387.22;5111789;28;20043;-47
2023/04/20 06:16:27;;;;;;;0.20;0.20;;;;;;;19.65;39.35;101388.91;5114006;28;20043;-48
2023/04/20 06:18:53;;;;;;;0.20;0.20;;;;;;;19.65;39.37;101377.03;5109350;27;20118;-49
2023/04/20 06:21:19;;;;;;;0.20;0.20;;;;;;;19.65;39.83;101382.56;5110670;28;20433;-49
2023/04/20 06:23:45;;;;;;;0.20;0.20;;;;;;;19.66;39.70;101384.22;5107963;28;20086;-48
2023/04/20 06:26:11;;;;;;;0.20;0.20;;;;;;;19.65;39.60;101377.84;5110955;28;20055;-49
2023/04/20 06:28:37;;;;;;;0.20;0.20;;;;;;;19.66;39.48;101376.75;5112596;27;20437;-48
2023/04/20 06:31:03;;;;;;;0.20;0.20;;;;;;;19.67;39.59;101374.81;5069138;27;20039;-47
2023/04/20 06:33:28;;;;;;;0.20;0.20;;;;;;;19.67;39.93;101363.75;5107762;28;20050;-46
2023/04/20 06:35:55;;;;;;;0.20;0.20;;;;;;;19.68;39.39;101362.66;5108596;27;20399;-49
2023/04/20 06:38:22;;;;;;;0.20;0.20;;;;;;;19.68;39.52;101370.94;5100589;27;20047;-46
2023/04/20 06:40:48;;;;;;;0.20;0.20;;;;;;;19.69;39.52;101373.44;5066663;28;20581;-46
2023/04/20 06:43:14;;;;;;;0.20;0.20;;;;;;;19.72;39.47;101367.34;5098942;28;20047;-49
2023/04/20 06:45:39;;;;;;;0.40;0.40;;;;;;;19.71;39.32;101362.94;5099847;28;20596;-49
2023/04/20 06:48:05;;;;;;;0.20;0.20;;;;;;;19.72;39.36;101367.34;5101020;28;20454;-45
2023/04/20 06:50:39;;;;;;;0.30;0.30;;;;;;;19.73;39.52;101369.03;5102379;28;20043;-47
2023/04/20 06:53:05;;;;;;;0.20;0.20;;;;;;;19.74;39.16;101372.63;5101323;28;20051;-45
2023/04/20 06:55:31;;;;;;;0.20;0.20;;;;;;;19.74;39.07;101370.69;5095501;27;20459;-45
2023/04/20 06:57:56;;;;;;;0.20;0.20;;;;;;;19.74;38.54;101367.91;5097623;27;20043;-46
2023/04/20 07:00:22;;;;;;;0.20;0.20;;;;;;;19.74;38.92;101370.69;5085593;27;20043;-45
2023/04/20 07:02:49;;;;;;;0.20;0.20;;;;;;;19.76;38.67;101368.47;5081768;27;20059;-45
2023/04/20 07:05:16;;;;;;;0.20;0.20;;;;;;;19.56;38.52;101362.88;5066062;28;20039;-45
2023/04/20 07:07:42;;;;;;;0.20;0.20;;;;;;;19.70;39.37;101375.09;5056338;28;20039;-45
2023/04/20 07:10:08;;;;;;;0.20;0.20;;;;;;;19.75;39.25;101382.56;5065649;28;20503;-46
2023/04/20 07:12:35;;;;;;;0.20;0.20;;;;;;;19.74;39.45;101370.69;5068085;28;20036;-45
2023/04/20 07:15:03;;;;;;;0.20;0.20;;;;;;;19.76;39.58;101371.22;5070550;28;20043;-45
2023/04/20 07:17:28;;;;;;;0.20;0.20;;;;;;;19.75;39.51;101368.75;5073901;28;20043;-46
2023/04/20 07:19:55;;;;;;;0.20;0.20;;;;;;;19.75;38.90;101368.75;5086119;27;20100;-45
2023/04/20 07:22:21;;;;;;;0.20;0.20;;;;;;;19.76;39.73;101365.69;5090182;27;20250;-47
2023/04/20 07:24:47;;;;;;;0.20;0.20;;;;;;;19.74;39.72;101362.41;5092638;27;20988;-48
2023/04/20 07:27:12;;;;;;;0.22;0.22;;;;;;;19.75;39.82;101369.56;5100898;27;20049;-46
2023/04/20 07:29:38;;;;;;;0.20;0.20;;;;;;;19.76;40.04;101359.34;5101217;28;21007;-46
2023/04/20 07:32:04;;;;;;;0.20;0.20;;;;;;;19.76;39.17;101362.13;5103957;27;20499;-47
2023/04/20 07:34:30;;;;;;;0.20;0.20;;;;;;;19.76;39.70;101360.16;5106992;27;20051;-47
2023/04/20 07:36:56;;;;;;;0.20;0.20;;;;;;;19.78;39.71;101368.22;5086622;28;20119;-46
2023/04/20 07:39:24;;;;;;;0.20;0.20;;;;;;;19.76;39.69;101365.69;5105209;27;20047;-48
2023/04/20 07:41:49;;;;;;;0.20;0.20;;;;;;;19.77;39.97;101380.34;5103939;27;20086;-50
2023/04/20 07:44:15;;;;;;;0.20;0.20;;;;;;;19.77;39.95;101364.63;5110734;28;20061;-46
2023/04/20 07:46:41;;;;;;;0.20;0.20;;;;;;;19.78;39.92;101376.50;5106912;27;20039;-47
2023/04/20 07:49:06;;;;;;;0.20;0.20;;;;;;;19.79;39.64;101369.88;5107716;27;20506;-46
2023/04/20 07:51:33;;;;;;;0.20;0.20;;;;;;;19.78;39.69;101374.56;5109183;28;20902;-46
2023/04/20 07:53:59;;;;;;;0.20;0.20;;;;;;;19.79;39.73;101367.94;5106940;27;20167;-46
2023/04/20 07:56:24;;;;;;;0.20;0.20;;;;;;;19.80;39.71;101377.88;5109055;27;20043;-46
2023/04/20 07:58:50;;;;;;;0.20;0.20;;;;;;;19.82;39.44;101372.09;5109116;28;20134;-46
2023/04/20 08:01:16;;;;;;;0.20;0.20;;;;;;;19.82;39.90;101372.09;5101502;27;20054;-45
2023/04/20 08:03:41;;;;;;;0.30;0.30;;;;;;;19.82;39.26;101372.09;5106242;28;20583;-46
2023/04/20 08:06:08;;;;;;;0.20;0.20;;;;;;;19.82;39.85;101360.16;5101732;28;20047;-46
2023/04/20 08:08:35;;;;;;;0.20;0.20;;;;;;;19.83;39.92;101370.97;5078044;28;20094;-45
2023/04/20 08:11:00;;;;;;;0.20;0.20;;;;;;;19.86;39.52;101364.06;5095046;27;20147;-48
2023/04/20 08:13:27;;;;;;;0.20;0.20;;;;;;;19.86;39.12;101373.19;5090303;27;20893;-46
2023/04/20 08:15:53;;;;;;;0.20;0.20;;;;;;;19.85;38.49;101365.16;5104159;27;20502;-46
2023/04/20 08:18:19;;;;;;;0.20;0.20;;;;;;;19.83;38.11;101359.09;5093839;28;20054;-47
2023/04/20 08:20:46;;;;;;;0.20;0.20;;;;;;;19.82;38.33;101355.50;5094695;27;20682;-48
2023/04/20 08:23:13;;;;;;;0.20;0.20;;;;;;;19.82;38.15;101354.66;5107112;28;20538;-46
2023/04/20 08:25:39;;;;;;;0.20;0.20;;;;;;;19.80;38.12;101354.94;5100639;28;20086;-49
2023/04/20 08:28:05;;;;;;;0.20;0.20;;;;;;;19.78;37.78;101354.38;5100293;27;20071;-45
2023/04/20 08:30:39;;;;;;;0.20;0.20;;;;;;;19.85;38.07;101345.81;5098481;27;20035;-45
2023/04/20 08:33:05;;;;;;;0.20;0.20;;;;;;;19.86;38.36;101342.78;5059331;28;20079;-47
2023/04/20 08:35:31;;;;;;;0.20;0.20;;;;;;;19.87;37.64;101338.91;5086901;27;20463;-45
2023/04/20 08:37:57;;;;;;;0.32;0.32;;;;;;;19.85;37.70;101343.88;5087055;27;20075;-47
2023/04/20 08:40:23;;;;;;;0.30;0.30;;;;;;;19.82;36.94;101335.31;5090839;27;20542;-46
2023/04/20 08:42:49;;;;;;;0.20;0.20;;;;;;;19.82;37.04;101351.88;5095362;27;20789;-49
2023/04/20 08:45:15;;;;;;;0.20;0.20;;;;;;;19.82;37.36;101338.91;5097232;27;20525;-46
2023/04/20 08:47:41;;;;;;;0.20;0.20;;;;;;;19.82;37.47;101336.16;5104576;27;20514;-45
2023/04/20 08:50:08;;;;;;;0.20;0.20;;;;;;;19.80;36.93;101335.59;5103209;27;20456;-44
2023/04/20 08:52:34;;;;;;;0.20;0.20;;;;;;;19.81;37.14;101334.47;5099243;27;20562;-46
2023/04/20 08:55:00;;;;;;;0.20;0.20;;;;;;;19.83;37.06;101336.97;5101079;27;20065;-46
2023/04/20 08:57:26;;;;;;;0.20;0.20;;;;;;;19.84;38.01;101335.88;5100598;27;20431;-46
2023/04/20 08:59:52;;;;;;;0.20;0.20;;;;;;;19.85;37.97;101335.59;5089145;28;20418;-45
2023/04/20 09:02:17;;;;;;;0.20;0.20;;;;;;;19.85;38.14;101329.22;5102989;27;20039;-46
2023/04/20 09:04:47;;;;;;;0.20;0.20;;;;;;;19.85;38.38;101341.13;5106995;27;20834;-47
2023/04/20 09:07:20;;;;;;;0.20;0.20;;;;;;;19.88;38.20;101339.75;5105838;27;20059;-46
2023/04/20 09:09:55;;;;;;;0.20;0.20;;;;;;;19.86;37.83;101341.94;5083214;28;20047;-46
2023/04/20 09:12:21;;;;;;;0.20;0.20;;;;;;;19.86;37.82;101337.28;5084591;27;21035;-46
2023/04/20 09:14:48;;;;;;;0.20;0.20;;;;;;;19.86;38.06;101339.16;5090775;27;20126;-45
2023/04/20 09:17:14;;;;;;;0.20;0.20;;;;;;;19.85;38.12;101338.34;5101646;27;20039;-48
2023/04/20 09:19:43;;;;;;;0.20;0.20;;;;;;;19.86;38.09;101336.41;5087150;27;20085;-47
2023/04/20 09:22:09;;;;;;;0.20;0.20;;;;;;;19.86;38.36;101333.66;5104195;27;20047;-48
2023/04/20 09:24:36;;;;;;;0.20;0.20;;;;;;;19.87;38.08;101343.63;5106166;27;20039;-45
2023/04/20 09:27:14;;;;;;;0.20;0.20;;;;;;;19.89;38.61;101341.41;5109292;27;20066;-46
2023/04/20 09:29:40;;;;;;;0.20;0.20;;;;;;;19.89;38.08;101349.69;5085943;27;20069;-47
2023/04/20 09:32:05;;;;;;;0.20;0.20;;;;;;;19.91;38.80;101350.25;5106407;27;20047;-45
2023/04/20 09:34:42;;;;;;;0.20;0.20;;;;;;;19.92;38.99;101344.44;5104669;27;20047;-45
2023/04/20 09:37:09;;;;;;;0.20;0.20;;;;;;;19.92;38.77;101347.22;5075422;27;20075;-46
2023/04/20 09:39:36;;;;;;;0.20;0.20;;;;;;;19.94;39.24;101341.41;5084997;27;20067;-45
2023/04/20 09:42:04;;;;;;;0.30;0.30;;;;;;;19.93;39.45;101337.81;5092056;27;20253;-48
2023/04/20 09:44:31;;;;;;;0.20;0.20;;;;;;;19.93;39.10;101348.03;5084926;27;20218;-43
2023/04/20 09:46:57;;;;;;;0.20;0.20;;;;;;;19.92;39.08;101338.09;5104182;27;20053;-46
2023/04/20 09:49:23;;;;;;;0.20;0.20;;;;;;;19.90;38.72;101332.81;5097671;27;20043;-48
2023/04/20 09:51:48;;;;;;;0.20;0.20;;;;;;;19.88;38.70;101323.16;5095125;27;20043;-44
2023/04/20 09:54:14;;;;;;;0.20;0.20;;;;;;;19.87;38.66;101330.63;5093139;27;20077;-45
2023/04/20 09:56:41;;;;;;;0.20;0.20;;;;;;;19.89;39.46;101319.28;5096303;27;20415;-44
2023/04/20 09:59:07;;;;;;;0.20;0.20;;;;;;;19.88;39.91;101312.09;5103164;27;20830;-45
2023/04/20 10:01:34;;;;;;;0.20;0.20;;;;;;;19.90;38.79;101318.16;5103890;28;20404;-45
2023/04/20 10:04:06;;;;;;;0.13;0.13;;;;;;;19.91;39.20;101311.56;5084676;28;20046;-47
2023/04/20 10:06:34;;;;;;;0.20;0.20;;;;;;;19.89;38.60;101311.00;5083685;28;20473;-48
2023/04/20 10:09:04;;;;;;;0.20;0.20;;;;;;;19.31;37.76;101297.38;5086239;28;20184;-43
2023/04/20 10:11:34;;;;;;;0.20;0.20;;;;;;;19.70;37.81;101300.50;5098445;27;20304;-45
2023/04/20 10:14:22;;;;;;;0.20;0.20;;;;;;;19.83;37.78;101301.06;5099094;27;20549;-47
2023/04/20 10:17:05;;;;;;;0.20;0.20;;;;;;;19.86;38.34;101295.81;5089569;28;20152;-46
2023/04/20 10:19:39;;;;;;;0.20;0.20;;;;;;;19.87;38.21;101288.34;5085230;28;20188;-48
2023/04/20 10:22:06;;;;;;;0.20;0.20;;;;;;;19.90;38.69;101290.53;5103175;28;20534;-46
2023/04/20 10:24:32;;;;;;;0.20;0.20;;;;;;;19.90;38.22;101288.59;5109700;28;20190;-48
2023/04/20 10:26:57;;;;;;;0.20;0.20;;;;;;;19.92;38.58;101286.41;5108478;28;20630;-44
2023/04/20 10:29:24;;;;;;;0.20;0.20;;;;;;;19.93;38.59;101281.69;5090326;28;20200;-46
2023/04/20 10:31:50;;;;;;;0.20;0.20;;;;;;;19.93;38.70;101289.97;5093798;27;20079;-45
2023/04/20 10:34:17;;;;;;;0.20;0.20;;;;;;;19.92;38.79;101272.56;5098701;27;20384;-47
2023/04/20 10:36:43;;;;;;;0.20;0.20;;;;;;;19.93;38.88;101273.41;5104205;27;20897;-46
2023/04/20 10:39:15;;;;;;;0.20;0.20;;;;;;;19.92;38.44;101274.50;5101321;27;20051;-50
2023/04/20 10:42:00;;;;;;;0.20;0.20;;;;;;;19.91;38.89;101278.41;5092926;27;20324;-45
2023/04/20 10:44:26;;;;;;;0.20;0.20;;;;;;;19.92;38.75;101268.97;5095275;28;20044;-45
2023/04/20 10:46:53;;;;;;;0.20;0.20;;;;;;;19.91;38.42;101272.88;5091973;27;20050;-45
2023/04/20 10:49:25;;;;;;;0.20;0.20;;;;;;;19.92;38.29;101271.75;5085354;28;20418;-46
2023/04/20 10:51:51;;;;;;;0.20;0.20;;;;;;;19.91;38.28;101270.09;5077171;28;20039;-47
2023/04/20 10:54:18;;;;;;;0.20;0.20;;;;;;;19.90;38.06;101260.94;5098627;27;20047;-45
2023/04/20 10:56:46;;;;;;;0.20;0.20;;;;;;;19.91;38.29;101267.34;5103276;28;20075;-46
2023/04/20 10:59:14;;;;;;;0.20;0.20;;;;;;;19.92;38.05;101257.94;5089440;28;20081;-49
2023/04/20 11:01:40;;;;;;;0.20;0.20;;;;;;;19.92;38.01;101246.88;5087378;28;20625;-48
2023/04/20 11:04:07;;;;;;;0.20;0.20;;;;;;;19.91;38.27;101262.63;5087316;28;20043;-46
2023/04/20 11:06:34;;;;;;;0.20;0.20;;;;;;;19.91;38.10;101246.06;5066857;28;20051;-46
2023/04/20 11:09:00;;;;;;;0.20;0.20;;;;;;;19.89;38.15;101247.41;5079994;28;20795;-45
2023/04/20 11:11:27;;;;;;;0.20;0.20;;;;;;;19.92;38.05;101244.09;5087226;28;20444;-46
2023/04/20 11:14:08;;;;;;;0.20;0.20;;;;;;;19.90;37.68;101240.78;5076210;28;20653;-47
2023/04/20 11:16:35;;;;;;;0.20;0.20;;;;;;;19.90;37.69;101249.06;5083599;28;20560;-46
2023/04/20 11:19:22;;;;;;;0.20;0.20;;;;;;;19.87;37.28;101239.41;5052513;28;20073;-47
2023/04/20 11:21:48;;;;;;;0.20;0.20;;;;;;;19.89;37.64;101244.66;5067566;28;20971;-45
2023/04/20 11:24:19;;;;;;;0.20;0.20;;;;;;;19.93;38.54;101238.28;5084340;28;20051;-44